Time;durP1;ratioP1;P1;durP2;ratioP2;P2;SDS_P1;SDS_P2;PMS_P1;PMS_P2;Temp;Humidity;BMP_temperature;BMP_pressure;BME280_temperature;BME280_humidity;BME280_pressure;Samples;Min_cycle;Max_cycle;Signal;HPM_P1;HPM_P2
2023/07/07 00:00:41;;;;;;;12.93;10.90;;;;;;;12.44;88.86;101766.09;5031428;28;20053;-92
2023/07/07 00:03:07;;;;;;;12.98;11.63;;;;;;;12.45;89.75;101762.38;5012726;28;20030;-92
2023/07/07 00:05:34;;;;;;;14.00;11.32;;;;;;;12.48;89.87;101761.16;5010563;28;20022;-92
2023/07/07 00:07:59;;;;;;;18.58;12.63;;;;;;;12.51;90.20;101767.03;5011558;28;20465;-92
2023/07/07 00:10:24;;;;;;;13.85;10.95;;;;;;;12.55;89.51;101762.91;5008516;28;20033;-93
2023/07/07 00:12:51;;;;;;;12.20;10.80;;;;;;;12.52;89.41;101766.03;5012280;28;20034;-92
2023/07/07 00:15:22;;;;;;;13.73;11.70;;;;;;;12.50;89.01;101768.06;5013155;28;20040;-93
2023/07/07 00:17:50;;;;;;;12.98;10.80;;;;;;;12.44;88.74;101772.31;5031393;28;20042;-93
2023/07/07 00:20:15;;;;;;;13.52;11.60;;;;;;;12.39;88.79;101768.50;5049624;28;20398;-93
2023/07/07 00:22:41;;;;;;;14.07;11.23;;;;;;;12.37;89.50;101765.16;5038868;28;20120;-93
2023/07/07 00:25:07;;;;;;;13.73;11.40;;;;;;;12.33;89.00;101766.59;5025192;28;20037;-92
2023/07/07 00:27:32;;;;;;;15.48;11.82;;;;;;;12.31;89.01;101768.63;5030758;28;20168;-93
2023/07/07 00:29:57;;;;;;;13.52;11.60;;;;;;;12.31;89.49;101760.53;5010216;28;20041;-92
2023/07/07 00:32:23;;;;;;;12.73;11.43;;;;;;;12.24;89.39;101763.97;5025177;28;20036;-92
2023/07/07 00:34:50;;;;;;;12.65;10.60;;;;;;;12.18;89.84;101767.38;5049169;28;20056;-93
2023/07/07 00:37:15;;;;;;;12.45;11.15;;;;;;;12.14;89.62;101771.50;5030262;28;20081;-92
2023/07/07 00:39:41;;;;;;;17.25;12.35;;;;;;;12.07;89.68;101765.16;5035554;28;20033;-92
2023/07/07 00:42:08;;;;;;;14.23;11.65;;;;;;;12.03;90.47;101774.63;5058819;27;20076;-92
2023/07/07 00:45:07;;;;;;;16.75;13.18;;;;;;;12.09;91.35;101768.50;5042724;28;20464;-92
2023/07/07 00:47:33;;;;;;;15.85;12.43;;;;;;;12.04;91.28;101765.50;5004871;28;20025;-93
2023/07/07 00:49:59;;;;;;;14.15;11.82;;;;;;;12.02;91.25;101767.56;5016128;28;20018;-93
2023/07/07 00:52:24;;;;;;;15.70;12.88;;;;;;;11.99;91.53;101774.16;5029828;28;20393;-91
2023/07/07 00:54:50;;;;;;;15.75;12.57;;;;;;;11.96;91.16;101775.34;5037677;28;20089;-92
2023/07/07 00:57:15;;;;;;;16.27;12.90;;;;;;;11.99;91.55;101771.47;4993223;28;20462;-92
2023/07/07 00:59:42;;;;;;;14.90;11.95;;;;;;;11.94;91.27;101771.16;5000047;28;20118;-92
2023/07/07 01:02:12;;;;;;;18.15;13.10;;;;;;;11.92;91.80;101768.66;5029994;28;20039;-92
2023/07/07 01:04:38;;;;;;;14.00;12.48;;;;;;;11.90;92.01;101770.69;5023307;28;20033;-92
2023/07/07 01:07:16;;;;;;;17.63;13.50;;;;;;;11.88;91.87;101771.91;5008508;28;20052;-91
2023/07/07 01:09:41;;;;;;;13.40;12.00;;;;;;;11.81;92.28;101771.78;4988707;28;20038;-91
2023/07/07 01:12:11;;;;;;;13.77;12.30;;;;;;;11.80;91.99;101775.50;5021503;28;20018;-92
2023/07/07 01:14:36;;;;;;;14.20;12.60;;;;;;;11.77;92.58;101771.28;5039026;28;20030;-92
2023/07/07 01:17:28;;;;;;;17.70;12.35;;;;;;;11.75;92.63;101767.94;4985962;28;20026;-92
2023/07/07 01:20:12;;;;;;;18.13;13.77;;;;;;;11.72;92.56;101772.88;5007773;28;20096;-91
2023/07/07 01:22:49;;;;;;;17.38;13.07;;;;;;;11.69;93.04;101771.38;5010035;28;20485;-93
2023/07/07 01:25:23;;;;;;;17.88;13.35;;;;;;;11.65;92.46;101761.97;5008841;28;20044;-92
2023/07/07 01:27:55;;;;;;;14.30;11.98;;;;;;;11.61;92.68;101757.94;5038399;28;20191;-91
2023/07/07 01:30:39;;;;;;;15.40;13.45;;;;;;;11.56;92.70;101758.50;5022862;28;20057;-92
2023/07/07 01:33:09;;;;;;;14.15;12.07;;;;;;;11.50;92.97;101757.38;5041698;28;20043;-92
2023/07/07 01:35:34;;;;;;;13.60;12.07;;;;;;;11.46;92.83;101752.53;5013301;28;20018;-91
2023/07/07 01:38:00;;;;;;;15.02;12.10;;;;;;;11.45;92.98;101751.69;5031908;28;20037;-92
2023/07/07 01:40:39;;;;;;;14.05;12.57;;;;;;;11.40;93.15;101753.25;5019028;28;20370;-91
2023/07/07 01:43:13;;;;;;;14.13;11.63;;;;;;;11.38;93.26;101756.97;4986038;28;20024;-92
2023/07/07 01:45:47;;;;;;;18.02;13.77;;;;;;;11.37;93.26;101757.97;4986772;28;20029;-91
2023/07/07 01:48:57;;;;;;;15.65;13.30;;;;;;;11.43;94.28;101771.75;4976271;28;20045;-90
2023/07/07 01:51:25;;;;;;;18.40;13.10;;;;;;;11.42;94.30;101767.38;4933019;29;20032;-89
2023/07/07 01:53:50;;;;;;;13.50;12.10;;;;;;;11.37;93.76;101757.97;4909343;28;20467;-91
2023/07/07 01:56:19;;;;;;;17.15;13.18;;;;;;;11.33;94.00;101767.44;4974269;28;20056;-90
2023/07/07 01:58:44;;;;;;;20.38;14.32;;;;;;;11.30;93.44;101764.25;4976986;28;20022;-91
2023/07/07 02:01:10;;;;;;;18.25;14.10;;;;;;;11.25;94.08;101770.19;5003574;28;20042;-91
2023/07/07 02:03:35;;;;;;;15.63;13.93;;;;;;;11.22;93.96;101757.91;4990904;28;20034;-92
2023/07/07 02:06:04;;;;;;;15.63;12.68;;;;;;;11.19;94.16;101760.97;4996323;28;20018;-91
2023/07/07 02:08:29;;;;;;;16.58;12.90;;;;;;;11.15;94.41;101769.56;5002209;28;20022;-92
2023/07/07 02:10:54;;;;;;;16.02;12.85;;;;;;;11.07;94.49;101765.94;5000420;28;20048;-92
2023/07/07 02:13:20;;;;;;;14.90;12.60;;;;;;;11.08;94.29;101755.97;5050380;28;20026;-92
2023/07/07 02:15:45;;;;;;;13.75;11.52;;;;;;;11.04;94.22;101762.72;5001109;28;20358;-91
2023/07/07 02:18:11;;;;;;;17.27;14.32;;;;;;;11.02;94.96;101762.91;5019283;28;20075;-91
2023/07/07 02:20:36;;;;;;;17.48;14.55;;;;;;;11.01;95.32;101766.63;4994482;28;20019;-91
2023/07/07 02:23:01;;;;;;;18.48;13.02;;;;;;;11.01;95.24;101761.25;4996115;28;20470;-91
2023/07/07 02:25:27;;;;;;;13.60;12.20;;;;;;;10.99;95.26;101768.66;4995439;28;20015;-92
2023/07/07 02:27:52;;;;;;;16.92;13.13;;;;;;;10.97;95.42;101772.56;4987363;28;20026;-92
2023/07/07 02:30:18;;;;;;;18.02;14.82;;;;;;;10.99;95.80;101763.28;4999737;28;20018;-92
2023/07/07 02:32:43;;;;;;;15.80;12.13;;;;;;;10.96;96.14;101766.31;4997443;28;20030;-92
2023/07/07 02:35:08;;;;;;;14.63;12.43;;;;;;;10.94;95.73;101776.47;4994086;28;20041;-92
2023/07/07 02:37:34;;;;;;;14.07;11.38;;;;;;;10.89;95.51;101776.13;5005256;28;20023;-91
2023/07/07 02:39:59;;;;;;;13.98;11.27;;;;;;;10.87;95.25;101775.47;5002882;28;20065;-92
2023/07/07 02:42:25;;;;;;;15.90;12.25;;;;;;;10.84;95.58;101781.19;4995281;28;20040;-92
2023/07/07 02:44:50;;;;;;;21.77;16.00;;;;;;;10.83;95.65;101779.53;5006458;28;20065;-92
2023/07/07 02:47:16;;;;;;;14.80;12.20;;;;;;;10.83;95.73;101774.13;5008075;28;20031;-91
2023/07/07 02:49:42;;;;;;;14.73;11.48;;;;;;;10.79;95.44;101772.81;5072914;28;20376;-93
2023/07/07 02:52:07;;;;;;;14.77;11.38;;;;;;;10.75;95.23;101767.78;5038918;28;20039;-93
2023/07/07 02:54:33;;;;;;;15.23;12.02;;;;;;;10.70;95.24;101774.69;5009744;28;20031;-92
2023/07/07 02:56:58;;;;;;;15.40;11.90;;;;;;;10.64;95.50;101770.84;4996163;28;21869;-93
2023/07/07 02:59:24;;;;;;;16.08;11.75;;;;;;;10.59;95.72;101773.25;4996557;28;20015;-93
2023/07/07 03:01:49;;;;;;;19.98;14.23;;;;;;;10.64;96.20;101776.25;5024469;28;20048;-92
2023/07/07 03:04:15;;;;;;;19.60;14.35;;;;;;;10.71;96.57;101785.31;5015707;28;20416;-93
2023/07/07 03:06:40;;;;;;;19.50;14.25;;;;;;;10.68;96.70;101779.44;5054745;28;20032;-91
2023/07/07 03:09:06;;;;;;;20.33;14.48;;;;;;;10.61;96.39;101781.97;5072064;28;20051;-93
2023/07/07 03:11:31;;;;;;;15.98;12.13;;;;;;;10.55;96.33;101785.38;5047451;28;20037;-92
2023/07/07 03:13:57;;;;;;;18.50;13.55;;;;;;;10.50;96.37;101788.56;5001470;28;20552;-87
2023/07/07 03:16:30;;;;;;;15.05;12.13;;;;;;;10.46;96.19;101788.06;5012670;28;20031;-90
2023/07/07 03:19:00;;;;;;;14.63;11.93;;;;;;;10.41;96.42;101782.38;5004679;28;20018;-90
2023/07/07 03:21:25;;;;;;;17.65;13.43;;;;;;;10.36;96.71;101782.03;5040022;28;20484;-90
2023/07/07 03:23:51;;;;;;;13.60;11.55;;;;;;;10.36;96.67;101790.09;5017085;28;20029;-93
2023/07/07 03:26:17;;;;;;;13.30;11.55;;;;;;;10.35;96.86;101788.44;5012133;28;20484;-92
2023/07/07 03:28:43;;;;;;;15.43;12.18;;;;;;;10.34;96.97;101792.13;5035366;28;20061;-92
2023/07/07 03:31:12;;;;;;;16.23;12.70;;;;;;;10.32;96.63;101794.16;5053576;28;20121;-92
2023/07/07 03:33:38;;;;;;;15.70;12.77;;;;;;;10.31;96.79;101795.16;5048994;27;20030;-93
2023/07/07 03:36:04;;;;;;;21.02;14.93;;;;;;;10.31;96.87;101796.00;5026273;28;20053;-92
2023/07/07 03:38:30;;;;;;;23.55;15.25;;;;;;;10.32;97.46;101794.16;5081043;28;20390;-92
2023/07/07 03:40:55;;;;;;;23.13;15.20;;;;;;;10.32;97.54;101807.59;5024193;28;20022;-91
2023/07/07 03:43:21;;;;;;;18.65;14.27;;;;;;;10.31;97.78;101803.22;5008882;28;20113;-92
2023/07/07 03:45:46;;;;;;;17.08;14.25;;;;;;;10.32;97.32;101796.84;5012323;28;20473;-92
2023/07/07 03:48:12;;;;;;;21.27;16.00;;;;;;;10.35;97.30;101803.72;5012459;28;20026;-92
2023/07/07 03:50:37;;;;;;;21.00;16.75;;;;;;;10.36;97.83;101806.25;5047056;28;20570;-92
2023/07/07 03:53:02;;;;;;;21.15;15.02;;;;;;;10.37;98.09;101801.69;5008243;28;20049;-93
2023/07/07 03:55:31;;;;;;;17.65;14.77;;;;;;;10.39;98.18;101807.78;5033753;28;20021;-92
2023/07/07 03:57:58;;;;;;;19.88;13.90;;;;;;;10.43;98.50;101812.66;5031487;28;20030;-90
2023/07/07 04:00:26;;;;;;;17.75;13.57;;;;;;;10.48;98.43;101805.91;5046548;28;20041;-92
2023/07/07 04:02:51;;;;;;;19.52;15.13;;;;;;;10.53;98.51;101814.31;5034119;28;20042;-91
2023/07/07 04:05:17;;;;;;;19.23;14.63;;;;;;;10.56;98.35;101805.91;5029846;28;20031;-95
2023/07/07 04:07:45;;;;;;;18.10;13.63;;;;;;;10.61;97.88;101822.34;5013029;28;20423;-92
2023/07/07 04:10:10;;;;;;;14.52;12.95;;;;;;;10.66;97.78;101817.28;5042230;28;20109;-93
2023/07/07 04:12:36;;;;;;;17.38;14.50;;;;;;;10.71;97.72;101814.94;5014163;28;20046;-93
2023/07/07 04:15:01;;;;;;;19.67;14.15;;;;;;;10.83;97.67;101809.16;5016642;28;20044;-93
2023/07/07 04:17:26;;;;;;;19.35;14.15;;;;;;;10.94;97.72;101819.56;5028358;28;20030;-93
2023/07/07 04:19:52;;;;;;;18.55;14.68;;;;;;;11.03;97.74;101807.72;5045321;28;20546;-93
2023/07/07 04:22:18;;;;;;;15.13;13.07;;;;;;;11.11;96.95;101819.47;5045405;28;20026;-93
2023/07/07 04:24:43;;;;;;;14.85;12.27;;;;;;;11.15;96.21;101816.25;5021857;28;20030;-93
2023/07/07 04:27:08;;;;;;;16.73;13.45;;;;;;;11.25;96.25;101824.09;5011102;28;20492;-92
2023/07/07 04:29:36;;;;;;;16.17;12.85;;;;;;;11.33;95.69;101817.81;5010748;28;20018;-92
2023/07/07 04:32:02;;;;;;;17.38;13.50;;;;;;;11.57;95.86;101824.06;4990144;28;20025;-92
2023/07/07 04:34:27;;;;;;;15.75;13.05;;;;;;;11.86;95.22;101817.94;5006391;28;20025;-93
2023/07/07 04:36:53;;;;;;;13.23;11.90;;;;;;;12.17;93.91;101813.47;5010270;28;20017;-92
2023/07/07 04:39:18;;;;;;;11.98;10.77;;;;;;;12.71;92.42;101809.66;5007240;28;20022;-93
2023/07/07 04:41:44;;;;;;;12.60;10.73;;;;;;;13.52;89.83;101816.03;5023147;28;20033;-93
2023/07/07 04:44:09;;;;;;;11.38;10.23;;;;;;;14.59;83.67;101819.56;5011410;28;20446;-93
2023/07/07 04:46:38;;;;;;;12.45;9.77;;;;;;;15.65;76.63;101813.91;5022980;28;20030;-91
2023/07/07 04:49:07;;;;;;;14.13;10.52;;;;;;;16.37;71.44;101816.81;5012721;28;20069;-93
2023/07/07 04:51:34;;;;;;;13.40;10.70;;;;;;;17.05;68.24;101831.91;5052286;28;20051;-95
2023/07/07 04:53:59;;;;;;;14.23;10.82;;;;;;;17.42;67.84;101832.13;5021162;27;20030;-94
2023/07/07 04:56:25;;;;;;;11.93;10.30;;;;;;;17.86;65.25;101824.06;5026686;28;20103;-93
2023/07/07 04:58:51;;;;;;;14.77;10.48;;;;;;;18.20;63.59;101833.84;5017555;28;20024;-93
2023/07/07 05:01:26;;;;;;;14.38;10.35;;;;;;;18.15;63.84;101835.34;5026053;28;20050;-93
2023/07/07 05:03:58;;;;;;;13.95;10.05;;;;;;;18.39;62.90;101840.16;5021927;28;20036;-92
2023/07/07 05:06:26;;;;;;;12.00;9.88;;;;;;;18.94;61.83;101834.75;5007237;28;20071;-88
2023/07/07 05:08:51;;;;;;;11.98;9.18;;;;;;;19.36;59.92;101835.88;5007094;28;20090;-87
2023/07/07 05:11:18;;;;;;;10.55;9.38;;;;;;;20.04;57.51;101846.63;5013564;28;20026;-87
2023/07/07 05:13:48;;;;;;;11.45;9.30;;;;;;;20.59;56.24;101842.69;5048869;28;20074;-79
2023/07/07 05:16:15;;;;;;;12.00;9.23;;;;;;;20.95;54.80;101840.75;5006130;28;20030;-83
2023/07/07 05:18:40;;;;;;;11.98;8.68;;;;;;;21.11;53.34;101838.31;5004489;28;20030;-90
2023/07/07 05:21:07;;;;;;;11.88;8.77;;;;;;;21.11;53.94;101835.56;4999772;28;20080;-86
2023/07/07 05:23:33;;;;;;;12.43;8.65;;;;;;;21.54;52.70;101833.34;5004758;28;20038;-83
2023/07/07 05:25:59;;;;;;;14.55;9.20;;;;;;;21.87;51.52;101842.69;5007558;28;20026;-88
2023/07/07 05:28:24;;;;;;;11.13;8.40;;;;;;;22.10;50.96;101845.25;5007367;28;20029;-85
2023/07/07 05:30:49;;;;;;;10.48;8.65;;;;;;;22.04;51.20;101845.44;5002552;28;20151;-86
2023/07/07 05:33:15;;;;;;;11.73;8.20;;;;;;;22.55;49.96;101846.22;5012300;28;20022;-87
2023/07/07 05:35:51;;;;;;;14.50;8.50;;;;;;;22.81;48.61;101849.28;5023563;28;20480;-87
2023/07/07 05:38:17;;;;;;;10.95;7.80;;;;;;;22.86;48.64;101854.84;5020016;28;20049;-87
2023/07/07 05:40:43;;;;;;;8.48;7.65;;;;;;;23.47;47.73;101855.78;5013802;28;20345;-88
2023/07/07 05:43:09;;;;;;;9.70;7.55;;;;;;;23.86;46.75;101847.34;5010273;28;20476;-88
2023/07/07 05:45:34;;;;;;;9.15;8.18;;;;;;;23.47;47.98;101851.13;5025481;28;20022;-88
2023/07/07 05:47:59;;;;;;;8.77;7.88;;;;;;;23.62;46.97;101855.94;5013917;28;20094;-87
2023/07/07 05:50:25;;;;;;;9.32;7.40;;;;;;;24.16;46.44;101850.63;5023679;28;20018;-88
2023/07/07 05:52:51;;;;;;;9.55;7.55;;;;;;;24.32;45.48;101854.28;5009912;28;20095;-87
2023/07/07 05:55:28;;;;;;;8.93;7.13;;;;;;;24.07;45.38;101859.38;5035585;28;20551;-88
2023/07/07 05:57:54;;;;;;;11.05;7.40;;;;;;;24.52;45.07;101856.34;5007088;28;20362;-88
2023/07/07 06:00:19;;;;;;;9.88;7.20;;;;;;;24.62;44.68;101852.81;5016838;28;20031;-89
2023/07/07 06:02:45;;;;;;;9.75;6.95;;;;;;;24.80;43.44;101857.88;5005895;28;20160;-80
2023/07/07 06:05:10;;;;;;;11.35;7.72;;;;;;;24.69;45.10;101856.16;5022317;28;20043;-86
2023/07/07 06:07:36;;;;;;;8.43;7.50;;;;;;;24.98;44.11;101855.72;5005348;28;20030;-86
2023/07/07 06:10:01;;;;;;;7.72;6.82;;;;;;;25.91;41.86;101852.31;5005985;28;20030;-86
2023/07/07 06:12:26;;;;;;;9.32;6.80;;;;;;;25.49;43.48;101849.53;5003832;28;20485;-88
2023/07/07 06:14:52;;;;;;;7.97;7.00;;;;;;;25.65;42.12;101855.06;5019213;28;20385;-85
2023/07/07 06:17:17;;;;;;;8.38;6.32;;;;;;;26.18;41.47;101852.84;5007344;28;20026;-85
2023/07/07 06:19:43;;;;;;;7.28;6.50;;;;;;;26.48;40.59;101850.31;5009223;28;20048;-87
2023/07/07 06:22:16;;;;;;;10.60;6.32;;;;;;;26.70;38.52;101854.66;5040718;22;20051;-87
2023/07/07 06:24:48;;;;;;;8.48;5.90;;;;;;;27.09;38.46;101857.53;5030654;28;20131;-84
2023/07/07 06:27:13;;;;;;;7.95;5.97;;;;;;;27.04;37.59;101863.06;5022535;28;20029;-84
2023/07/07 06:29:38;;;;;;;8.55;6.20;;;;;;;27.97;35.99;101862.44;5030789;28;20026;-84
2023/07/07 06:32:07;;;;;;;8.55;5.60;;;;;;;28.24;34.88;101855.53;5061823;28;20022;-88
2023/07/07 06:34:33;;;;;;;6.63;4.72;;;;;;;28.53;35.57;101849.16;5041522;28;20052;-85
2023/07/07 06:36:59;;;;;;;7.72;6.35;;;;;;;28.23;35.85;101851.16;5028300;28;20030;-84
2023/07/07 06:39:26;;;;;;;7.43;6.18;;;;;;;28.67;35.31;101862.28;5027591;28;20048;-87
2023/07/07 06:41:53;;;;;;;7.20;5.93;;;;;;;28.58;35.58;101856.56;5031101;28;20079;-90
2023/07/07 06:44:20;;;;;;;8.40;6.03;;;;;;;28.79;35.85;101865.47;5027016;28;20037;-86
2023/07/07 06:46:46;;;;;;;6.65;5.78;;;;;;;28.66;34.86;101868.94;5025209;28;20052;-91
2023/07/07 06:49:11;;;;;;;7.22;5.50;;;;;;;29.09;34.81;101866.19;5026689;22;20149;-89
2023/07/07 06:51:37;;;;;;;7.18;5.22;;;;;;;30.19;32.46;101868.88;5001992;28;20216;-91
2023/07/07 06:54:02;;;;;;;7.57;5.18;;;;;;;30.22;32.66;101863.56;5006637;28;20151;-90
2023/07/07 06:56:28;;;;;;;5.43;4.28;;;;;;;31.67;30.55;101870.75;4998191;28;20027;-89
2023/07/07 06:58:53;;;;;;;7.85;5.53;;;;;;;31.04;30.45;101871.34;5014487;28;20406;-91
2023/07/07 07:01:18;;;;;;;7.15;5.40;;;;;;;30.16;31.72;101866.75;5015824;28;20117;-91
2023/07/07 07:03:44;;;;;;;8.57;4.75;;;;;;;30.55;30.58;101871.84;5006366;28;20473;-91
2023/07/07 07:06:10;;;;;;;6.97;5.30;;;;;;;30.08;31.23;101869.09;4995610;28;20041;-89
2023/07/07 07:08:35;;;;;;;6.65;5.03;;;;;;;30.69;30.87;101866.28;4973322;28;20022;-89
2023/07/07 07:11:01;;;;;;;6.25;4.38;;;;;;;31.00;29.89;101865.59;4995637;28;20034;-89
2023/07/07 07:13:26;;;;;;;7.20;3.85;;;;;;;29.76;30.11;101862.41;4999800;28;20057;-89
2023/07/07 07:15:52;;;;;;;9.13;3.85;;;;;;;30.05;29.53;101869.69;5011135;28;20018;-89
2023/07/07 07:18:17;;;;;;;5.53;3.75;;;;;;;31.06;28.83;101871.88;5016062;28;20026;-90
2023/07/07 07:20:43;;;;;;;4.95;3.35;;;;;;;30.70;29.12;101865.16;5007620;28;20034;-81
2023/07/07 07:23:09;;;;;;;7.07;3.53;;;;;;;31.33;28.45;101866.56;5001994;28;20034;-81
2023/07/07 07:25:35;;;;;;;7.93;3.30;;;;;;;32.47;26.77;101873.69;5002625;28;20545;-81
2023/07/07 07:28:00;;;;;;;5.07;2.97;;;;;;;33.40;25.07;101878.47;4996360;28;20033;-81
2023/07/07 07:30:25;;;;;;;4.90;3.08;;;;;;;33.23;25.17;101870.88;5002171;28;20384;-81
2023/07/07 07:32:51;;;;;;;4.43;3.00;;;;;;;32.72;26.72;101868.50;5015160;28;20036;-81
2023/07/07 07:35:17;;;;;;;6.35;3.53;;;;;;;32.44;27.86;101877.13;4998826;28;20483;-83
2023/07/07 07:37:42;;;;;;;5.05;3.35;;;;;;;32.26;27.48;101870.63;5006035;28;20517;-83
2023/07/07 07:40:08;;;;;;;8.48;3.50;;;;;;;32.53;27.79;101879.09;5008236;28;20022;-84
2023/07/07 07:42:33;;;;;;;6.15;3.55;;;;;;;32.07;28.51;101884.78;5002020;28;20052;-83
2023/07/07 07:44:59;;;;;;;5.47;3.42;;;;;;;32.68;25.87;101884.22;5012929;28;20030;-84
2023/07/07 07:47:24;;;;;;;6.13;3.20;;;;;;;32.24;26.54;101880.44;5006565;28;20023;-84
2023/07/07 07:49:50;;;;;;;7.00;2.88;;;;;;;32.69;25.88;101883.09;5018290;28;20022;-84
2023/07/07 07:52:18;;;;;;;5.47;2.65;;;;;;;31.77;27.21;101875.28;5000829;28;20025;-84
2023/07/07 07:54:44;;;;;;;3.40;2.90;;;;;;;32.83;25.36;101883.00;5001655;28;20026;-82
2023/07/07 07:57:09;;;;;;;4.25;2.70;;;;;;;32.80;24.22;101876.06;5002667;28;20026;-84
2023/07/07 07:59:35;;;;;;;4.68;2.55;;;;;;;32.15;25.75;101875.63;5000642;28;20018;-84
2023/07/07 08:02:00;;;;;;;4.18;2.53;;;;;;;32.39;25.98;101885.63;5012367;28;20035;-88
2023/07/07 08:04:25;;;;;;;4.45;2.58;;;;;;;33.05;25.30;101887.59;5007538;28;20083;-89
2023/07/07 08:06:52;;;;;;;3.95;2.33;;;;;;;32.86;24.84;101889.88;4999413;28;20036;-91
2023/07/07 08:09:18;;;;;;;3.13;2.30;;;;;;;32.95;23.72;101885.97;4998291;28;20026;-88
2023/07/07 08:11:46;;;;;;;3.75;2.45;;;;;;;32.19;24.53;101896.16;5000416;28;20032;-88
2023/07/07 08:14:17;;;;;;;3.33;2.03;;;;;;;32.38;24.25;101892.34;5000982;28;20064;-89
2023/07/07 08:16:44;;;;;;;3.28;2.25;;;;;;;32.93;23.87;101890.22;5001496;28;20177;-87
2023/07/07 08:19:09;;;;;;;3.00;2.25;;;;;;;32.54;24.18;101903.88;5001187;28;20059;-86
2023/07/07 08:21:34;;;;;;;3.90;2.33;;;;;;;32.80;24.37;101901.16;5002989;28;20026;-88
2023/07/07 08:24:00;;;;;;;4.47;2.25;;;;;;;33.21;22.64;101896.34;5011770;28;20022;-88
2023/07/07 08:26:25;;;;;;;3.05;2.33;;;;;;;33.45;23.81;101897.03;5003235;28;20029;-89
2023/07/07 08:28:51;;;;;;;3.90;2.22;;;;;;;33.84;23.50;101903.53;5018228;28;20030;-92
2023/07/07 08:31:19;;;;;;;3.50;2.10;;;;;;;33.56;23.23;101895.53;5019334;28;20033;-88
2023/07/07 08:33:46;;;;;;;4.68;2.40;;;;;;;33.03;24.25;101897.47;5007077;28;20042;-91
2023/07/07 08:36:11;;;;;;;5.07;2.47;;;;;;;32.75;24.27;101897.69;5017259;28;20033;-92
2023/07/07 08:38:38;;;;;;;4.88;2.30;;;;;;;34.41;22.87;101904.38;5016469;28;20045;-92
2023/07/07 08:41:03;;;;;;;2.83;2.15;;;;;;;35.18;21.12;101904.28;5032644;28;20116;-92
2023/07/07 08:43:30;;;;;;;4.50;2.30;;;;;;;33.81;22.37;101905.00;5003176;28;20033;-94
2023/07/07 08:46:04;;;;;;;3.13;2.20;;;;;;;33.90;22.42;101899.44;5004712;28;20030;-91
2023/07/07 08:48:50;;;;;;;3.63;2.25;;;;;;;33.34;23.95;101897.34;5000560;28;20069;-90
2023/07/07 08:51:18;;;;;;;3.25;2.35;;;;;;;33.66;22.51;101899.94;5003904;28;20049;-88
2023/07/07 08:53:55;;;;;;;6.03;2.38;;;;;;;34.16;22.09;101904.16;4978429;28;20059;-86
2023/07/07 08:56:45;;;;;;;3.83;2.00;;;;;;;33.31;22.24;101897.16;5001714;28;20041;-86
2023/07/07 08:59:20;;;;;;;3.40;2.30;;;;;;;34.42;22.03;101903.25;4997662;28;20050;-85
2023/07/07 09:01:48;;;;;;;2.53;2.00;;;;;;;34.10;21.80;101894.28;5019322;28;20414;-85
2023/07/07 09:04:29;;;;;;;6.22;2.40;;;;;;;33.57;22.72;101888.78;5016374;28;20118;-88
2023/07/07 09:07:11;;;;;;;5.22;2.30;;;;;;;33.63;22.42;101895.03;5027739;28;20109;-90
2023/07/07 09:10:10;;;;;;;2.63;1.92;;;;;;;34.04;21.98;101888.06;5024545;28;20033;-89
2023/07/07 09:12:53;;;;;;;3.72;2.30;;;;;;;33.84;21.82;101886.78;5019713;28;20069;-90
2023/07/07 09:15:29;;;;;;;2.10;1.90;;;;;;;33.16;22.70;101890.91;5000557;28;20026;-89
2023/07/07 09:18:14;;;;;;;2.85;2.10;;;;;;;33.95;22.12;101888.09;5011481;28;20096;-90
2023/07/07 09:20:39;;;;;;;2.42;2.20;;;;;;;34.57;22.04;101896.25;5016235;28;20057;-88
2023/07/07 09:23:09;;;;;;;5.13;2.17;;;;;;;34.37;21.68;101872.66;5006184;28;20021;-89
2023/07/07 09:25:40;;;;;;;4.63;2.28;;;;;;;35.93;20.81;101894.22;5005071;28;20161;-88
2023/07/07 09:28:07;;;;;;;2.28;1.90;;;;;;;34.08;21.88;101874.25;5002426;28;20629;-87
2023/07/07 09:30:43;;;;;;;5.07;2.30;;;;;;;33.58;22.21;101873.69;5006746;28;20029;-87
2023/07/07 09:33:19;;;;;;;3.35;1.83;;;;;;;34.00;21.93;101873.97;5011694;28;20052;-90
2023/07/07 09:36:21;;;;;;;3.22;2.30;;;;;;;34.59;21.21;101868.78;4996993;28;20030;-84
2023/07/07 09:39:04;;;;;;;3.45;2.50;;;;;;;34.83;20.81;101875.72;5027434;28;20042;-90
2023/07/07 09:41:54;;;;;;;3.35;2.22;;;;;;;35.58;21.10;101882.56;5020152;28;20032;-90
2023/07/07 09:44:35;;;;;;;4.53;2.28;;;;;;;33.66;22.83;101870.06;4983072;28;20168;-88
2023/07/07 09:47:23;;;;;;;5.18;2.38;;;;;;;33.71;21.82;101867.09;5007893;28;20026;-89
2023/07/07 09:49:54;;;;;;;2.83;2.08;;;;;;;35.11;21.24;101870.44;5024066;28;20113;-90
2023/07/07 09:52:40;;;;;;;4.22;2.25;;;;;;;33.49;21.88;101864.50;5018224;28;20038;-88
2023/07/07 09:55:18;;;;;;;2.78;2.03;;;;;;;34.04;21.17;101867.72;5005129;28;20037;-90
2023/07/07 09:58:13;;;;;;;3.05;2.00;;;;;;;35.01;20.60;101860.47;4979199;28;20038;-88
2023/07/07 10:00:38;;;;;;;5.28;2.15;;;;;;;35.47;20.96;101860.63;5011646;28;20033;-90
2023/07/07 10:03:08;;;;;;;2.33;1.92;;;;;;;36.37;18.72;101874.09;4987288;28;20223;-89
2023/07/07 10:05:34;;;;;;;6.53;2.42;;;;;;;35.33;20.12;101862.84;4984395;28;20018;-88
2023/07/07 10:08:01;;;;;;;3.20;2.20;;;;;;;35.55;20.06;101866.44;5004443;28;20049;-89
2023/07/07 10:10:27;;;;;;;2.78;2.30;;;;;;;36.19;19.53;101869.88;4993408;28;20022;-89
2023/07/07 10:12:52;;;;;;;2.65;1.90;;;;;;;35.80;20.17;101867.34;5006616;28;20018;-92
2023/07/07 10:15:30;;;;;;;2.60;2.10;;;;;;;35.18;19.57;101858.69;5011668;28;20026;-89
2023/07/07 10:18:06;;;;;;;2.58;1.85;;;;;;;34.84;19.68;101855.00;5006377;28;20037;-88
2023/07/07 10:20:31;;;;;;;4.65;2.03;;;;;;;34.86;20.85;101853.47;4986473;28;20134;-88
2023/07/07 10:22:57;;;;;;;3.00;1.92;;;;;;;36.05;19.94;101870.22;5006346;28;20025;-87
2023/07/07 10:25:22;;;;;;;3.13;1.92;;;;;;;35.36;19.92;101860.19;5010294;28;20045;-87
2023/07/07 10:27:53;;;;;;;3.45;2.08;;;;;;;35.80;19.38;101859.78;5011052;28;20456;-87
2023/07/07 10:30:19;;;;;;;2.75;2.03;;;;;;;35.43;19.50;101865.22;5002443;28;20473;-86
2023/07/07 10:32:44;;;;;;;3.90;2.25;;;;;;;35.03;19.44;101851.75;5010622;28;20025;-89
2023/07/07 10:35:15;;;;;;;5.55;2.28;;;;;;;34.27;20.07;101859.88;5013753;28;20446;-87
2023/07/07 10:37:41;;;;;;;4.15;2.03;;;;;;;34.15;21.26;101852.22;5007533;28;20030;-89
2023/07/07 10:40:12;;;;;;;3.63;1.92;;;;;;;34.70;20.11;101849.66;5005903;28;20026;-89
2023/07/07 10:42:38;;;;;;;2.55;2.00;;;;;;;35.46;18.85;101850.56;5012999;28;20381;-89
2023/07/07 10:45:05;;;;;;;4.05;2.15;;;;;;;34.54;20.20;101847.44;5019824;28;20041;-89
2023/07/07 10:47:35;;;;;;;3.58;2.15;;;;;;;34.32;19.41;101851.31;5009190;28;20030;-89
2023/07/07 10:50:01;;;;;;;3.58;2.05;;;;;;;35.26;19.37;101846.59;5009894;28;20520;-90
2023/07/07 10:53:05;;;;;;;3.22;1.88;;;;;;;35.66;19.54;101845.25;5007166;28;20057;-90
2023/07/07 10:55:57;;;;;;;4.03;2.08;;;;;;;35.47;19.66;101846.63;5031991;23;20069;-89
2023/07/07 10:59:00;;;;;;;2.67;1.98;;;;;;;35.08;19.86;101848.75;5078740;28;20044;-90
2023/07/07 11:01:28;;;;;;;3.05;2.10;;;;;;;35.67;19.25;101844.06;5107756;28;20015;-91
2023/07/07 11:04:00;;;;;;;2.92;2.03;;;;;;;36.85;18.63;101848.38;5114915;28;20031;-90
2023/07/07 11:06:35;;;;;;;4.28;2.00;;;;;;;36.69;18.25;101849.09;5088906;28;20448;-88
2023/07/07 11:09:03;;;;;;;3.13;2.17;;;;;;;36.64;18.07;101842.88;5094796;28;20039;-89
2023/07/07 11:11:28;;;;;;;2.30;2.10;;;;;;;36.99;17.29;101848.81;5113088;28;20475;-89
2023/07/07 11:14:29;;;;;;;2.17;1.87;;;;;;;35.95;17.94;101832.28;5111532;28;20066;-89
2023/07/07 11:17:04;;;;;;;3.83;2.10;;;;;;;35.10;19.26;101835.22;5097878;28;20039;-88
2023/07/07 11:19:34;;;;;;;3.88;2.10;;;;;;;35.02;20.32;101834.16;5125226;28;20050;-89
2023/07/07 11:22:27;;;;;;;2.10;1.90;;;;;;;34.51;20.03;101828.53;5098864;28;20032;-89
2023/07/07 11:24:59;;;;;;;2.33;2.03;;;;;;;35.13;19.29;101837.31;5090649;28;20031;-89